createdAt,value
2022-09-05T00:02:01.411Z,99.59
2022-09-05T00:04:53.448Z,100.00
2022-09-05T00:07:59.783Z,100.00
2022-09-05T00:10:25.667Z,100.00
2022-09-05T00:13:07.172Z,99.40
2022-09-05T00:16:01.644Z,95.75
2022-09-05T00:24:18.541Z,97.28
2022-09-05T00:24:30.625Z,98.90
2022-09-05T00:25:14.880Z,97.98
2022-09-05T00:27:58.905Z,100.00
2022-09-05T00:31:07.532Z,99.62
2022-09-05T00:34:10.184Z,96.88
2022-09-05T00:36:39.813Z,98.50
2022-09-05T00:39:12.767Z,98.17
2022-09-05T00:41:39.878Z,98.52
2022-09-05T00:44:07.060Z,97.72
2022-09-05T00:46:37.513Z,96.48
2022-09-05T00:49:31.993Z,98.54
2022-09-05T00:52:01.599Z,99.36
2022-09-05T00:55:02.557Z,97.75
2022-09-05T00:57:41.239Z,96.80
2022-09-05T01:00:17.926Z,98.25
2022-09-05T01:03:10.039Z,98.25
2022-09-05T01:06:14.925Z,97.50
2022-09-05T01:09:08.210Z,98.90
2022-09-05T01:12:09.136Z,98.36
2022-09-05T01:14:35.640Z,97.54
2022-09-05T01:17:21.002Z,99.22
2022-09-05T01:20:19.112Z,100.00
2022-09-05T01:23:18.215Z,99.94
2022-09-05T01:26:21.883Z,98.69
2022-09-05T01:29:17.907Z,100.00
2022-09-05T01:32:02.507Z,100.00
2022-09-05T01:34:56.464Z,100.00
2022-09-05T01:37:33.999Z,100.00
2022-09-05T01:40:19.899Z,98.94
2022-09-05T01:43:06.256Z,100.00
2022-09-05T01:46:01.189Z,100.00
2022-09-05T01:48:46.286Z,100.00
2022-09-05T01:51:35.542Z,100.00
2022-09-05T01:54:24.622Z,100.00
2022-09-05T01:57:02.299Z,100.00
2022-09-05T01:59:39.714Z,100.00
2022-09-05T02:02:23.299Z,100.00
2022-09-05T02:05:11.902Z,99.67
2022-09-05T02:08:04.603Z,100.00
2022-09-05T02:10:39.805Z,100.00
2022-09-05T02:13:24.299Z,100.00
2022-09-05T02:15:59.782Z,99.60
2022-09-05T02:18:52.347Z,100.00
2022-09-05T02:21:36.697Z,100.00
2022-09-05T02:24:45.618Z,100.00
2022-09-05T02:27:45.865Z,100.00
2022-09-05T02:30:17.288Z,100.00
2022-09-05T02:32:51.550Z,100.00
2022-09-05T02:35:24.098Z,100.00
2022-09-05T02:38:31.736Z,100.00
2022-09-05T02:45:07.354Z,100.00
2022-09-05T02:45:07.590Z,100.00
2022-09-05T02:47:00.454Z,100.00
2022-09-05T02:51:04.156Z,100.00
2022-09-05T02:57:29.017Z,100.00
2022-09-05T02:57:40.980Z,100.00
2022-09-05T02:58:21.835Z,100.00
2022-09-05T03:01:04.301Z,100.00
2022-09-05T03:03:37.175Z,100.00
2022-09-05T03:06:35.146Z,100.00
2022-09-05T03:09:17.356Z,100.00
2022-09-05T03:12:28.375Z,100.00
2022-09-05T03:15:18.450Z,100.00
2022-09-05T03:18:20.025Z,100.00
2022-09-05T03:21:15.949Z,100.00
2022-09-05T03:24:01.419Z,100.00
2022-09-05T03:26:44.003Z,100.00
2022-09-05T03:29:25.822Z,100.00
2022-09-05T03:32:11.066Z,100.00
2022-09-05T03:34:53.667Z,100.00
2022-09-05T03:37:59.299Z,100.00
2022-09-05T03:40:46.842Z,100.00
2022-09-05T03:43:34.848Z,100.00
2022-09-05T03:46:08.218Z,100.00
2022-09-05T03:48:44.074Z,100.00
2022-09-05T03:57:04.745Z,100.00
2022-09-05T03:57:13.960Z,100.00
2022-09-05T03:57:41.746Z,100.00
2022-09-05T04:00:21.653Z,100.00
2022-09-05T04:08:15.054Z,100.00
2022-09-05T04:08:27.564Z,100.00
2022-09-05T04:09:04.101Z,100.00
2022-09-05T04:11:35.742Z,100.00
2022-09-05T04:14:07.028Z,100.00
2022-09-05T04:16:45.023Z,100.00
2022-09-05T04:19:18.192Z,100.00
2022-09-05T04:21:55.855Z,100.00
2022-09-05T04:24:36.822Z,100.00
2022-09-05T04:27:45.152Z,100.00
2022-09-05T04:30:38.396Z,98.95
2022-09-05T04:33:36.279Z,98.05
2022-09-05T04:36:28.236Z,100.00
2022-09-05T04:39:09.424Z,97.20
2022-09-05T04:41:42.246Z,97.32
2022-09-05T04:44:14.847Z,97.15
2022-09-05T04:46:54.484Z,93.85
2022-09-05T04:49:30.427Z,93.86
2022-09-05T04:52:31.461Z,94.71
2022-09-05T04:55:14.557Z,95.58
2022-09-05T04:58:01.366Z,94.14
2022-09-05T05:06:00.673Z,95.20
2022-09-05T05:06:17.339Z,94.98
2022-09-05T05:06:45.582Z,95.57
2022-09-05T05:10:03.277Z,95.79
2022-09-05T05:17:58.393Z,93.45
2022-09-05T05:18:14.228Z,94.55
2022-09-05T05:18:57.582Z,95.60
2022-09-05T05:21:30.138Z,94.52
2022-09-05T05:24:07.902Z,93.76
2022-09-05T05:27:13.328Z,91.83
2022-09-05T05:29:46.007Z,94.12
2022-09-05T05:32:44.866Z,93.35
2022-09-05T05:35:15.016Z,92.98
2022-09-05T05:37:45.676Z,91.20
2022-09-05T05:40:15.220Z,94.68
2022-09-05T05:42:43.213Z,91.34
2022-09-05T05:45:27.898Z,92.30
2022-09-05T05:47:59.949Z,92.96
2022-09-05T05:51:06.441Z,91.99
2022-09-05T05:54:00.946Z,86.71
2022-09-05T05:56:46.324Z,87.55
2022-09-05T05:59:28.027Z,91.66
2022-09-05T06:02:19.652Z,92.08
2022-09-05T06:04:55.440Z,93.06
2022-09-05T06:11:20.534Z,93.65
2022-09-05T06:14:57.752Z,90.71
2022-09-05T06:15:01.052Z,93.49
2022-09-05T06:17:46.514Z,91.57
2022-09-05T06:22:03.987Z,84.99
2022-09-05T06:23:38.672Z,82.23
2022-09-05T06:26:37.757Z,80.09
2022-09-05T06:29:17.566Z,79.67
2022-09-05T06:32:10.481Z,78.00
2022-09-05T06:34:59.995Z,72.56
2022-09-05T06:37:54.494Z,71.33
2022-09-05T06:40:37.245Z,75.04
2022-09-05T06:43:26.124Z,72.07
2022-09-05T06:46:54.321Z,70.01
2022-09-05T06:49:30.303Z,72.53
2022-09-05T06:52:29.202Z,75.56
2022-09-05T06:55:31.205Z,71.44
2022-09-05T06:58:28.038Z,72.99
2022-09-05T07:00:57.103Z,72.13
2022-09-05T07:03:46.716Z,70.29
2022-09-05T07:07:01.495Z,64.51
2022-09-05T07:09:50.874Z,65.77
2022-09-05T07:12:30.235Z,62.93
2022-09-05T07:15:32.502Z,63.10
2022-09-05T07:18:26.683Z,64.12
2022-09-05T07:21:15.792Z,64.88
2022-09-05T07:24:08.959Z,62.61
2022-09-05T07:26:52.538Z,62.30
2022-09-05T07:29:32.796Z,62.83
2022-09-05T07:32:01.373Z,64.58
2022-09-05T07:34:30.160Z,63.94
2022-09-05T07:37:15.561Z,64.70
2022-09-05T07:39:51.774Z,63.16
2022-09-05T07:42:26.511Z,64.91
2022-09-05T07:44:57.111Z,65.15
2022-09-05T07:47:32.676Z,65.45
2022-09-05T07:50:47.204Z,62.67
2022-09-05T07:56:49.702Z,65.85
2022-09-05T07:57:05.170Z,64.54
2022-09-05T07:58:41.279Z,66.14
2022-09-05T08:01:13.015Z,63.94
2022-09-05T08:03:41.491Z,61.70
2022-09-05T08:06:14.381Z,65.50
2022-09-05T08:09:21.380Z,65.54
2022-09-05T08:11:59.959Z,63.46
2022-09-05T08:14:44.934Z,62.79
2022-09-05T08:17:21.063Z,61.74
2022-09-05T08:20:15.868Z,61.44
2022-09-05T08:22:52.270Z,59.89
2022-09-05T08:25:27.447Z,61.49
2022-09-05T08:28:19.588Z,63.15
2022-09-05T08:30:54.048Z,64.48
2022-09-05T08:33:24.439Z,60.23
2022-09-05T08:35:57.770Z,61.39
2022-09-05T08:38:38.737Z,59.11
2022-09-05T08:41:26.030Z,60.21
2022-09-05T08:46:41.199Z,62.07
2022-09-05T08:47:27.707Z,60.76
2022-09-05T08:50:14.123Z,60.22
2022-09-05T08:53:02.230Z,58.38
2022-09-05T08:55:39.023Z,57.15
2022-09-05T08:58:24.187Z,57.79
2022-09-05T09:01:07.457Z,56.97
2022-09-05T09:05:01.018Z,53.68
2022-09-05T09:07:51.535Z,53.47
2022-09-05T09:10:29.362Z,52.23
2022-09-05T09:13:11.089Z,51.98
2022-09-05T09:15:56.633Z,52.48
2022-09-05T09:18:35.842Z,52.84
2022-09-05T09:21:23.271Z,50.33
2022-09-05T09:24:32.789Z,50.32
2022-09-05T09:27:41.707Z,51.45
2022-09-05T09:30:12.262Z,49.21
2022-09-05T09:32:49.366Z,49.06
2022-09-05T09:35:54.831Z,47.94
2022-09-05T09:38:51.533Z,49.33
2022-09-05T09:41:34.062Z,49.09
2022-09-05T09:44:21.154Z,49.82
2022-09-05T09:46:50.754Z,46.48
2022-09-05T09:49:36.760Z,45.47
2022-09-05T09:52:20.606Z,46.56
2022-09-05T09:55:30.384Z,46.23
2022-09-05T09:58:15.242Z,45.32
2022-09-05T10:01:35.437Z,45.68
2022-09-05T10:10:34.326Z,46.61
2022-09-05T10:11:09.345Z,44.58
2022-09-05T10:11:22.648Z,47.70
2022-09-05T10:14:03.953Z,44.98
2022-09-05T10:16:42.093Z,45.97
2022-09-05T10:22:41.110Z,45.39
2022-09-05T10:25:32.399Z,44.78
2022-09-05T10:28:37.821Z,44.48
2022-09-05T10:31:55.568Z,48.26
2022-09-05T10:35:12.935Z,43.89
2022-09-05T10:37:02.717Z,44.29
2022-09-05T10:39:35.429Z,44.28
2022-09-05T10:42:11.114Z,44.71
2022-09-05T10:44:46.523Z,43.49
2022-09-05T10:47:26.300Z,44.65
2022-09-05T10:50:20.774Z,43.38
2022-09-05T10:52:50.442Z,45.26
2022-09-05T10:55:26.167Z,43.63
2022-09-05T10:58:30.430Z,44.79
2022-09-05T11:02:29.997Z,44.62
2022-09-05T11:04:51.854Z,42.59
2022-09-05T11:07:43.935Z,45.43
2022-09-05T11:10:20.366Z,43.35
2022-09-05T11:13:05.879Z,43.25
2022-09-05T11:15:52.899Z,42.23
2022-09-05T11:18:56.912Z,42.09
2022-09-05T11:21:42.243Z,42.12
2022-09-05T11:24:31.528Z,40.91
2022-09-05T11:27:24.602Z,42.21
2022-09-05T11:29:55.976Z,41.21
2022-09-05T11:36:13.348Z,41.52
2022-09-05T11:40:05.248Z,41.45
2022-09-05T11:40:07.554Z,39.56
2022-09-05T11:42:00.466Z,40.72
2022-09-05T11:44:34.765Z,39.14
2022-09-05T11:47:48.802Z,38.97
2022-09-05T11:50:51.815Z,38.78
2022-09-05T11:53:37.144Z,39.18
2022-09-05T11:56:46.108Z,39.00
2022-09-05T11:59:46.779Z,39.09
2022-09-05T12:02:32.730Z,37.80
2022-09-05T12:05:48.335Z,38.10
2022-09-05T12:08:38.160Z,38.43
2022-09-05T12:11:22.928Z,38.74
2022-09-05T12:14:21.376Z,39.76
2022-09-05T12:16:55.202Z,39.61
2022-09-05T12:19:47.313Z,40.31
2022-09-05T12:22:23.573Z,39.17
2022-09-05T12:25:26.431Z,39.32
2022-09-05T12:29:27.576Z,40.22
2022-09-05T12:32:19.647Z,38.80
2022-09-05T12:36:06.370Z,39.27
2022-09-05T12:40:43.288Z,38.05
2022-09-05T12:40:57.496Z,39.23
2022-09-05T12:43:49.683Z,37.15
2022-09-05T12:45:47.657Z,36.55
2022-09-05T12:48:39.253Z,37.87
2022-09-05T12:51:18.038Z,37.27
2022-09-05T12:54:01.812Z,37.61
2022-09-05T12:58:37.299Z,36.01
2022-09-05T13:03:02.089Z,37.18
2022-09-05T13:03:14.741Z,37.35
2022-09-05T13:05:17.143Z,37.41
2022-09-05T13:07:48.913Z,37.85
2022-09-05T13:14:14.503Z,39.34
2022-09-05T13:14:52.378Z,37.18
2022-09-05T13:16:03.474Z,38.28
2022-09-05T13:18:39.191Z,37.24
2022-09-05T13:21:27.188Z,39.28
2022-09-05T13:24:05.289Z,35.98
2022-09-05T13:26:41.751Z,36.50
2022-09-05T13:29:21.665Z,37.48
2022-09-05T13:38:11.574Z,38.53
2022-09-05T13:38:21.300Z,36.73
2022-09-05T13:38:47.506Z,36.73
2022-09-05T13:40:49.404Z,37.36
2022-09-05T13:43:21.867Z,37.99
2022-09-05T13:46:18.907Z,37.68
2022-09-05T13:51:51.217Z,37.34
2022-09-05T13:54:30.560Z,38.82
2022-09-05T13:57:32.749Z,38.40
2022-09-05T14:00:07.026Z,36.98
2022-09-05T14:03:37.673Z,37.88
2022-09-05T14:06:47.081Z,38.00
2022-09-05T14:09:41.889Z,38.06
2022-09-05T14:12:36.975Z,38.96
2022-09-05T14:15:39.227Z,38.86
2022-09-05T14:18:53.055Z,40.10
2022-09-05T14:21:20.749Z,42.44
2022-09-05T14:24:10.982Z,42.10
2022-09-05T14:26:46.024Z,39.22
2022-09-05T14:29:18.771Z,39.03
2022-09-05T14:37:35.120Z,39.29
2022-09-05T14:37:49.991Z,39.36
2022-09-05T14:38:35.721Z,40.15
2022-09-05T14:41:42.859Z,39.88
2022-09-05T14:44:51.502Z,41.52
2022-09-05T14:47:47.413Z,41.19
2022-09-05T14:50:30.085Z,41.17
2022-09-05T14:57:10.205Z,42.60
2022-09-05T15:02:51.985Z,43.00
2022-09-05T15:02:52.182Z,43.78
2022-09-05T15:04:56.402Z,41.23
2022-09-05T15:07:34.392Z,42.18
2022-09-05T15:12:17.890Z,42.99
2022-09-05T15:13:05.610Z,41.47
2022-09-05T15:15:39.301Z,41.44
2022-09-05T15:18:32.115Z,42.06
2022-09-05T15:21:33.932Z,43.57
2022-09-05T15:24:14.424Z,44.37
2022-09-05T15:26:57.257Z,42.03
2022-09-05T15:29:29.473Z,42.36
2022-09-05T15:32:26.013Z,42.79
2022-09-05T15:34:55.472Z,42.64
2022-09-05T15:37:29.350Z,42.36
2022-09-05T15:40:22.645Z,42.01
2022-09-05T15:43:05.186Z,40.30
2022-09-05T15:45:39.706Z,41.13
2022-09-05T15:48:15.401Z,40.46
2022-09-05T15:50:48.611Z,42.12
2022-09-05T15:53:22.987Z,42.90
2022-09-05T15:56:00.268Z,42.17
2022-09-05T15:58:28.539Z,41.55
2022-09-05T16:01:45.077Z,41.71
2022-09-05T16:05:57.417Z,42.58
2022-09-05T16:10:39.375Z,44.11
2022-09-05T16:10:49.483Z,42.62
2022-09-05T16:18:34.245Z,45.25
2022-09-05T16:23:14.288Z,43.03
2022-09-05T16:23:26.992Z,44.32
2022-09-05T16:24:04.948Z,42.71
2022-09-05T16:26:38.535Z,43.94
2022-09-05T16:29:25.898Z,42.89
2022-09-05T16:31:59.377Z,44.80
2022-09-05T16:35:10.985Z,47.08
2022-09-05T16:37:45.006Z,44.87
2022-09-05T16:40:17.741Z,45.54
2022-09-05T16:43:18.190Z,49.46
2022-09-05T16:45:52.566Z,43.93
2022-09-05T16:48:40.995Z,45.32
2022-09-05T16:51:36.385Z,45.74
2022-09-05T16:54:29.247Z,46.48
2022-09-05T16:57:00.477Z,46.61
2022-09-05T16:59:30.040Z,48.62
2022-09-05T17:02:06.587Z,49.09
2022-09-05T17:05:15.316Z,45.76
2022-09-05T17:08:03.881Z,47.84
2022-09-05T17:10:42.630Z,51.21
2022-09-05T17:13:16.596Z,49.21
2022-09-05T17:15:52.135Z,49.82
2022-09-05T17:18:24.192Z,49.83
2022-09-05T17:20:56.796Z,47.90
2022-09-05T17:27:35.483Z,51.66
2022-09-05T17:29:23.472Z,51.43
2022-09-05T17:32:34.945Z,52.79
2022-09-05T17:35:20.298Z,52.49
2022-09-05T17:38:11.651Z,53.11
2022-09-05T17:40:59.317Z,54.10
2022-09-05T17:43:32.998Z,54.30
2022-09-05T17:46:18.868Z,53.97
2022-09-05T17:49:06.060Z,54.58
2022-09-05T17:51:50.800Z,56.24
2022-09-05T17:54:37.683Z,55.57
2022-09-05T17:57:29.283Z,55.50
2022-09-05T18:00:02.299Z,57.23
2022-09-05T18:02:54.313Z,58.04
2022-09-05T18:05:57.587Z,58.86
2022-09-05T18:08:44.943Z,58.75
2022-09-05T18:11:54.584Z,59.55
2022-09-05T18:14:38.050Z,59.47
2022-09-05T18:17:38.205Z,59.41
2022-09-05T18:20:11.500Z,58.88
2022-09-05T18:22:47.292Z,58.64
2022-09-05T18:26:03.351Z,60.73
2022-09-05T18:28:39.520Z,60.98
2022-09-05T18:31:40.838Z,59.46
2022-09-05T18:34:14.813Z,60.86
2022-09-05T18:36:42.178Z,56.27
2022-09-05T18:39:24.685Z,62.32
2022-09-05T18:42:09.154Z,61.57
2022-09-05T18:44:59.634Z,58.66
2022-09-05T18:47:54.157Z,62.14
2022-09-05T18:50:32.182Z,61.49
2022-09-05T18:53:08.663Z,60.67
2022-09-05T18:56:14.287Z,63.26
2022-09-05T18:58:28.312Z,63.40
2022-09-05T19:00:55.568Z,60.05
2022-09-05T19:03:27.010Z,60.82
2022-09-05T19:06:36.602Z,59.70
2022-09-05T19:08:53.184Z,60.53
2022-09-05T19:11:30.727Z,61.73
2022-09-05T19:14:26.369Z,61.15
2022-09-05T19:17:14.027Z,62.35
2022-09-05T19:20:31.846Z,61.20
2022-09-05T19:23:13.286Z,62.14
2022-09-05T19:25:46.555Z,61.37
2022-09-05T19:35:54.411Z,59.60
2022-09-05T19:36:49.129Z,61.32
2022-09-05T19:37:06.989Z,62.30
2022-09-05T19:37:30.148Z,61.77
2022-09-05T19:44:32.414Z,61.78
2022-09-05T19:47:25.876Z,60.41
2022-09-05T19:47:55.626Z,63.35
2022-09-05T19:48:25.848Z,62.89
2022-09-05T19:51:16.830Z,61.95
2022-09-05T19:53:54.070Z,61.69
2022-09-05T19:56:44.568Z,63.05
2022-09-05T19:59:15.662Z,61.89
2022-09-05T20:01:43.233Z,61.25
2022-09-05T20:04:19.466Z,63.56
2022-09-05T20:06:47.951Z,64.92
2022-09-05T20:09:19.976Z,63.47
2022-09-05T20:11:52.633Z,63.46
2022-09-05T20:14:34.675Z,64.50
2022-09-05T20:17:20.601Z,65.54
2022-09-05T20:19:47.837Z,65.56
2022-09-05T20:22:47.457Z,64.75
2022-09-05T20:25:36.006Z,66.24
2022-09-05T20:28:35.892Z,65.31
2022-09-05T20:31:08.651Z,66.30
2022-09-05T20:34:04.122Z,64.84
2022-09-05T20:43:12.375Z,65.90
2022-09-05T20:43:14.579Z,65.93
2022-09-05T20:43:28.731Z,65.47
2022-09-05T20:45:42.014Z,64.42
2022-09-05T20:54:05.886Z,63.69
2022-09-05T20:54:15.235Z,63.29
2022-09-05T20:54:25.732Z,64.70
2022-09-05T20:56:48.089Z,64.93
2022-09-05T20:59:34.554Z,62.76
2022-09-05T21:02:07.215Z,63.32
2022-09-05T21:04:38.447Z,59.41
2022-09-05T21:07:19.634Z,60.01
2022-09-05T21:09:57.656Z,62.91
2022-09-05T21:12:34.664Z,63.03
2022-09-05T21:15:31.809Z,63.05
2022-09-05T21:17:52.486Z,62.51
2022-09-05T21:20:24.493Z,63.11
2022-09-05T21:22:54.188Z,63.89
2022-09-05T21:25:25.990Z,63.26
2022-09-05T21:28:23.706Z,64.57
2022-09-05T21:31:04.485Z,62.46
2022-09-05T21:33:45.066Z,63.90
2022-09-05T21:36:12.636Z,63.80
2022-09-05T21:38:41.400Z,64.25
2022-09-05T21:41:08.275Z,62.23
2022-09-05T21:47:40.324Z,63.46
2022-09-05T21:47:48.044Z,64.83
2022-09-05T21:49:14.183Z,65.78
2022-09-05T21:51:40.875Z,62.83
2022-09-05T21:59:22.333Z,61.95
2022-09-05T21:59:24.825Z,62.96
2022-09-05T22:00:05.501Z,63.62
2022-09-05T22:02:37.573Z,65.07
2022-09-05T22:05:04.779Z,64.24
2022-09-05T22:07:35.873Z,65.57
2022-09-05T22:10:04.344Z,67.22
2022-09-05T22:12:37.436Z,66.08
2022-09-05T22:15:27.694Z,66.57
2022-09-05T22:18:09.742Z,66.85
2022-09-05T22:20:46.443Z,67.25
2022-09-05T22:23:30.378Z,67.21
2022-09-05T22:26:00.908Z,67.13
2022-09-05T22:28:33.723Z,68.18
2022-09-05T22:31:07.577Z,66.18
2022-09-05T22:33:38.802Z,65.27
2022-09-05T22:36:08.072Z,63.11
2022-09-05T22:38:37.954Z,63.76
2022-09-05T22:41:06.182Z,65.99
2022-09-05T22:43:35.302Z,64.69
2022-09-05T22:46:03.668Z,62.65
2022-09-05T22:48:34.017Z,63.20
2022-09-05T22:51:04.267Z,64.89
2022-09-05T22:53:30.956Z,65.17
2022-09-05T22:56:00.204Z,64.89
2022-09-05T22:58:27.372Z,66.56
2022-09-05T23:00:54.426Z,65.92
2022-09-05T23:03:21.257Z,64.53
2022-09-05T23:05:51.155Z,64.15
2022-09-05T23:08:17.794Z,65.12
2022-09-05T23:10:44.424Z,64.71
2022-09-05T23:13:11.422Z,65.12
2022-09-05T23:15:38.458Z,65.51
2022-09-05T23:18:08.337Z,61.72
2022-09-05T23:20:35.735Z,65.61
2022-09-05T23:23:06.511Z,64.97
2022-09-05T23:25:34.186Z,64.72
2022-09-05T23:28:08.493Z,66.82
2022-09-05T23:30:35.957Z,66.91
2022-09-05T23:33:08.120Z,65.32
2022-09-05T23:35:37.802Z,66.91
2022-09-05T23:38:09.280Z,65.11
2022-09-05T23:40:36.112Z,64.72
2022-09-05T23:43:03.399Z,63.72
2022-09-05T23:45:32.355Z,66.17
2022-09-05T23:47:59.275Z,67.33
2022-09-05T23:50:27.295Z,65.28
2022-09-05T23:52:53.948Z,67.55
2022-09-05T23:55:23.231Z,67.31
2022-09-05T23:57:50.013Z,66.82
